sensor_id;sensor_type;location;lat;lon;timestamp;P1;durP1;ratioP1;P2;durP2;ratioP2
5167;SDS011;2603;48.918;8.980;2023-03-23T00:01:06;2.80;;;1.10;;
5167;SDS011;2603;48.918;8.980;2023-03-23T00:03:35;1.47;;;0.80;;
5167;SDS011;2603;48.918;8.980;2023-03-23T00:06:02;2.70;;;0.87;;
5167;SDS011;2603;48.918;8.980;2023-03-23T00:08:31;4.20;;;1.13;;
5167;SDS011;2603;48.918;8.980;2023-03-23T00:10:58;3.20;;;2.03;;
5167;SDS011;2603;48.918;8.980;2023-03-23T00:13:27;1.63;;;0.90;;
5167;SDS011;2603;48.918;8.980;2023-03-23T00:15:54;1.80;;;0.97;;
5167;SDS011;2603;48.918;8.980;2023-03-23T00:18:23;2.87;;;1.07;;
5167;SDS011;2603;48.918;8.980;2023-03-23T00:20:50;1.90;;;1.00;;
5167;SDS011;2603;48.918;8.980;2023-03-23T00:23:18;1.83;;;1.00;;
5167;SDS011;2603;48.918;8.980;2023-03-23T00:25:48;4.70;;;1.17;;
5167;SDS011;2603;48.918;8.980;2023-03-23T00:28:16;1.50;;;0.93;;
5167;SDS011;2603;48.918;8.980;2023-03-23T00:30:44;2.50;;;1.10;;
5167;SDS011;2603;48.918;8.980;2023-03-23T00:33:11;1.60;;;0.80;;
5167;SDS011;2603;48.918;8.980;2023-03-23T00:35:41;4.10;;;1.43;;
5167;SDS011;2603;48.918;8.980;2023-03-23T00:38:09;2.20;;;1.13;;
5167;SDS011;2603;48.918;8.980;2023-03-23T00:40:36;2.23;;;0.90;;
5167;SDS011;2603;48.918;8.980;2023-03-23T00:43:02;1.83;;;1.00;;
5167;SDS011;2603;48.918;8.980;2023-03-23T00:45:29;2.53;;;1.13;;
5167;SDS011;2603;48.918;8.980;2023-03-23T00:47:56;1.77;;;0.97;;
5167;SDS011;2603;48.918;8.980;2023-03-23T00:50:29;3.07;;;0.97;;
5167;SDS011;2603;48.918;8.980;2023-03-23T00:52:57;1.67;;;1.00;;
5167;SDS011;2603;48.918;8.980;2023-03-23T00:55:24;3.00;;;1.47;;
5167;SDS011;2603;48.918;8.980;2023-03-23T00:57:50;10.60;;;1.53;;
5167;SDS011;2603;48.918;8.980;2023-03-23T01:00:19;2.17;;;1.17;;
5167;SDS011;2603;48.918;8.980;2023-03-23T01:02:46;3.30;;;1.70;;
5167;SDS011;2603;48.918;8.980;2023-03-23T01:05:12;1.60;;;0.90;;
5167;SDS011;2603;48.918;8.980;2023-03-23T01:07:39;1.97;;;1.10;;
5167;SDS011;2603;48.918;8.980;2023-03-23T01:10:09;2.53;;;1.10;;
5167;SDS011;2603;48.918;8.980;2023-03-23T01:12:37;2.33;;;1.03;;
5167;SDS011;2603;48.918;8.980;2023-03-23T01:15:04;2.80;;;1.50;;
5167;SDS011;2603;48.918;8.980;2023-03-23T01:17:31;3.03;;;1.27;;
5167;SDS011;2603;48.918;8.980;2023-03-23T01:19:58;2.57;;;1.27;;
5167;SDS011;2603;48.918;8.980;2023-03-23T01:22:25;1.83;;;1.17;;
5167;SDS011;2603;48.918;8.980;2023-03-23T01:24:51;1.90;;;1.10;;
5167;SDS011;2603;48.918;8.980;2023-03-23T01:27:19;1.90;;;0.97;;
5167;SDS011;2603;48.918;8.980;2023-03-23T01:29:45;3.13;;;1.20;;
5167;SDS011;2603;48.918;8.980;2023-03-23T01:32:12;3.33;;;1.20;;
5167;SDS011;2603;48.918;8.980;2023-03-23T01:34:39;6.03;;;1.37;;
5167;SDS011;2603;48.918;8.980;2023-03-23T01:37:05;3.77;;;1.10;;
5167;SDS011;2603;48.918;8.980;2023-03-23T01:39:32;2.67;;;1.00;;
5167;SDS011;2603;48.918;8.980;2023-03-23T01:41:58;2.13;;;1.07;;
5167;SDS011;2603;48.918;8.980;2023-03-23T01:47:31;2.60;;;1.30;;
5167;SDS011;2603;48.918;8.980;2023-03-23T01:49:57;2.10;;;1.20;;
5167;SDS011;2603;48.918;8.980;2023-03-23T01:52:25;2.50;;;1.33;;
5167;SDS011;2603;48.918;8.980;2023-03-23T01:54:57;2.40;;;1.33;;
5167;SDS011;2603;48.918;8.980;2023-03-23T01:57:24;6.73;;;1.43;;
5167;SDS011;2603;48.918;8.980;2023-03-23T01:59:55;1.87;;;1.17;;
5167;SDS011;2603;48.918;8.980;2023-03-23T02:02:27;2.23;;;1.20;;
5167;SDS011;2603;48.918;8.980;2023-03-23T02:04:59;4.20;;;1.20;;
5167;SDS011;2603;48.918;8.980;2023-03-23T02:07:31;4.33;;;1.60;;
5167;SDS011;2603;48.918;8.980;2023-03-23T02:09:59;1.80;;;1.33;;
5167;SDS011;2603;48.918;8.980;2023-03-23T02:12:29;2.50;;;1.53;;
5167;SDS011;2603;48.918;8.980;2023-03-23T02:14:56;2.40;;;1.27;;
5167;SDS011;2603;48.918;8.980;2023-03-23T02:17:23;1.97;;;1.00;;
5167;SDS011;2603;48.918;8.980;2023-03-23T02:22:50;3.50;;;1.23;;
5167;SDS011;2603;48.918;8.980;2023-03-23T02:25:32;2.90;;;1.37;;
5167;SDS011;2603;48.918;8.980;2023-03-23T02:28:13;2.10;;;1.20;;
5167;SDS011;2603;48.918;8.980;2023-03-23T02:30:49;3.13;;;1.57;;
5167;SDS011;2603;48.918;8.980;2023-03-23T02:33:36;1.53;;;1.03;;
5167;SDS011;2603;48.918;8.980;2023-03-23T02:36:10;3.33;;;1.50;;
5167;SDS011;2603;48.918;8.980;2023-03-23T02:38:41;3.97;;;2.00;;
5167;SDS011;2603;48.918;8.980;2023-03-23T02:41:15;3.60;;;1.83;;
5167;SDS011;2603;48.918;8.980;2023-03-23T02:43:44;2.63;;;1.37;;
5167;SDS011;2603;48.918;8.980;2023-03-23T02:46:12;3.33;;;1.23;;
5167;SDS011;2603;48.918;8.980;2023-03-23T02:48:41;8.97;;;1.47;;
5167;SDS011;2603;48.918;8.980;2023-03-23T02:51:08;2.03;;;1.47;;
5167;SDS011;2603;48.918;8.980;2023-03-23T02:53:37;2.70;;;1.30;;
5167;SDS011;2603;48.918;8.980;2023-03-23T02:56:06;3.00;;;1.33;;
5167;SDS011;2603;48.918;8.980;2023-03-23T02:58:35;2.67;;;1.40;;
5167;SDS011;2603;48.918;8.980;2023-03-23T03:01:12;4.10;;;1.90;;
5167;SDS011;2603;48.918;8.980;2023-03-23T03:03:43;3.17;;;1.60;;
5167;SDS011;2603;48.918;8.980;2023-03-23T03:06:10;2.23;;;1.40;;
5167;SDS011;2603;48.918;8.980;2023-03-23T03:08:45;3.13;;;1.47;;
5167;SDS011;2603;48.918;8.980;2023-03-23T03:11:13;3.10;;;1.63;;
5167;SDS011;2603;48.918;8.980;2023-03-23T03:13:44;2.97;;;1.20;;
5167;SDS011;2603;48.918;8.980;2023-03-23T03:16:16;1.80;;;1.20;;
5167;SDS011;2603;48.918;8.980;2023-03-23T03:18:51;4.90;;;1.80;;
5167;SDS011;2603;48.918;8.980;2023-03-23T03:21:21;3.97;;;1.50;;
5167;SDS011;2603;48.918;8.980;2023-03-23T03:23:55;2.53;;;1.53;;
5167;SDS011;2603;48.918;8.980;2023-03-23T03:26:24;3.50;;;1.40;;
5167;SDS011;2603;48.918;8.980;2023-03-23T03:28:57;3.47;;;1.70;;
5167;SDS011;2603;48.918;8.980;2023-03-23T03:31:26;5.53;;;1.53;;
5167;SDS011;2603;48.918;8.980;2023-03-23T03:33:57;2.80;;;1.80;;
5167;SDS011;2603;48.918;8.980;2023-03-23T03:36:27;3.10;;;1.40;;
5167;SDS011;2603;48.918;8.980;2023-03-23T03:39:00;2.63;;;1.20;;
5167;SDS011;2603;48.918;8.980;2023-03-23T03:41:32;4.20;;;1.43;;
5167;SDS011;2603;48.918;8.980;2023-03-23T03:43:59;3.87;;;1.63;;
5167;SDS011;2603;48.918;8.980;2023-03-23T03:46:26;4.13;;;1.93;;
5167;SDS011;2603;48.918;8.980;2023-03-23T03:48:55;2.30;;;1.20;;
5167;SDS011;2603;48.918;8.980;2023-03-23T03:51:24;2.00;;;1.30;;
5167;SDS011;2603;48.918;8.980;2023-03-23T03:53:52;4.40;;;1.40;;
5167;SDS011;2603;48.918;8.980;2023-03-23T03:56:18;2.33;;;1.57;;
5167;SDS011;2603;48.918;8.980;2023-03-23T03:58:55;2.87;;;1.33;;
5167;SDS011;2603;48.918;8.980;2023-03-23T04:01:40;3.60;;;1.43;;
5167;SDS011;2603;48.918;8.980;2023-03-23T04:04:07;2.17;;;1.20;;
5167;SDS011;2603;48.918;8.980;2023-03-23T04:06:36;2.70;;;1.60;;
5167;SDS011;2603;48.918;8.980;2023-03-23T04:09:04;3.20;;;1.47;;
5167;SDS011;2603;48.918;8.980;2023-03-23T04:11:33;1.87;;;1.07;;
5167;SDS011;2603;48.918;8.980;2023-03-23T04:14:20;3.80;;;1.90;;
5167;SDS011;2603;48.918;8.980;2023-03-23T04:16:47;2.77;;;1.47;;
5167;SDS011;2603;48.918;8.980;2023-03-23T04:19:21;3.40;;;1.70;;
5167;SDS011;2603;48.918;8.980;2023-03-23T04:21:49;5.10;;;1.93;;
5167;SDS011;2603;48.918;8.980;2023-03-23T04:24:17;2.10;;;1.37;;
5167;SDS011;2603;48.918;8.980;2023-03-23T04:26:47;1.87;;;1.00;;
5167;SDS011;2603;48.918;8.980;2023-03-23T04:29:22;3.00;;;1.60;;
5167;SDS011;2603;48.918;8.980;2023-03-23T04:32:06;3.00;;;1.40;;
5167;SDS011;2603;48.918;8.980;2023-03-23T04:34:39;2.70;;;1.23;;
5167;SDS011;2603;48.918;8.980;2023-03-23T04:37:07;2.20;;;1.27;;
5167;SDS011;2603;48.918;8.980;2023-03-23T04:39:34;2.90;;;1.53;;
5167;SDS011;2603;48.918;8.980;2023-03-23T04:42:03;3.87;;;1.60;;
5167;SDS011;2603;48.918;8.980;2023-03-23T04:44:49;2.93;;;1.40;;
5167;SDS011;2603;48.918;8.980;2023-03-23T04:47:24;3.90;;;1.40;;
5167;SDS011;2603;48.918;8.980;2023-03-23T04:49:55;2.50;;;1.33;;
5167;SDS011;2603;48.918;8.980;2023-03-23T04:52:33;2.77;;;1.60;;
5167;SDS011;2603;48.918;8.980;2023-03-23T04:55:03;3.63;;;1.80;;
5167;SDS011;2603;48.918;8.980;2023-03-23T04:57:34;3.07;;;1.60;;
5167;SDS011;2603;48.918;8.980;2023-03-23T05:00:24;3.10;;;1.60;;
5167;SDS011;2603;48.918;8.980;2023-03-23T05:02:53;1.97;;;1.57;;
5167;SDS011;2603;48.918;8.980;2023-03-23T05:05:22;3.10;;;1.67;;
5167;SDS011;2603;48.918;8.980;2023-03-23T05:07:52;2.57;;;1.60;;
5167;SDS011;2603;48.918;8.980;2023-03-23T05:10:23;2.70;;;1.50;;
5167;SDS011;2603;48.918;8.980;2023-03-23T05:12:54;2.43;;;1.13;;
5167;SDS011;2603;48.918;8.980;2023-03-23T05:15:20;4.67;;;1.83;;
5167;SDS011;2603;48.918;8.980;2023-03-23T05:17:50;2.60;;;1.60;;
5167;SDS011;2603;48.918;8.980;2023-03-23T05:20:19;2.97;;;1.73;;
5167;SDS011;2603;48.918;8.980;2023-03-23T05:22:48;2.40;;;1.30;;
5167;SDS011;2603;48.918;8.980;2023-03-23T05:25:21;2.63;;;1.87;;
5167;SDS011;2603;48.918;8.980;2023-03-23T05:27:58;2.10;;;1.33;;
5167;SDS011;2603;48.918;8.980;2023-03-23T05:30:45;2.43;;;1.23;;
5167;SDS011;2603;48.918;8.980;2023-03-23T05:33:14;2.40;;;1.60;;
5167;SDS011;2603;48.918;8.980;2023-03-23T05:35:48;3.70;;;1.83;;
5167;SDS011;2603;48.918;8.980;2023-03-23T05:38:19;2.57;;;1.47;;
5167;SDS011;2603;48.918;8.980;2023-03-23T05:40:48;5.83;;;1.23;;
5167;SDS011;2603;48.918;8.980;2023-03-23T05:43:20;6.57;;;1.60;;
5167;SDS011;2603;48.918;8.980;2023-03-23T05:46:06;3.10;;;1.50;;
5167;SDS011;2603;48.918;8.980;2023-03-23T05:48:34;4.10;;;1.60;;
5167;SDS011;2603;48.918;8.980;2023-03-23T05:51:01;2.87;;;1.40;;
5167;SDS011;2603;48.918;8.980;2023-03-23T05:53:31;2.13;;;1.50;;
5167;SDS011;2603;48.918;8.980;2023-03-23T05:56:00;2.37;;;1.40;;
5167;SDS011;2603;48.918;8.980;2023-03-23T05:58:44;1.80;;;1.17;;
5167;SDS011;2603;48.918;8.980;2023-03-23T06:01:11;2.60;;;1.30;;
5167;SDS011;2603;48.918;8.980;2023-03-23T06:03:39;2.70;;;1.40;;
5167;SDS011;2603;48.918;8.980;2023-03-23T06:06:14;2.63;;;1.70;;
5167;SDS011;2603;48.918;8.980;2023-03-23T06:08:50;6.47;;;1.80;;
5167;SDS011;2603;48.918;8.980;2023-03-23T06:11:23;2.50;;;1.70;;
5167;SDS011;2603;48.918;8.980;2023-03-23T06:14:08;7.13;;;1.70;;
5167;SDS011;2603;48.918;8.980;2023-03-23T06:16:35;2.87;;;1.80;;
5167;SDS011;2603;48.918;8.980;2023-03-23T06:19:07;8.13;;;2.30;;
5167;SDS011;2603;48.918;8.980;2023-03-23T06:21:36;2.70;;;1.63;;
5167;SDS011;2603;48.918;8.980;2023-03-23T06:24:11;4.50;;;1.50;;
5167;SDS011;2603;48.918;8.980;2023-03-23T06:26:39;4.23;;;1.63;;
5167;SDS011;2603;48.918;8.980;2023-03-23T06:29:13;2.20;;;1.43;;
5167;SDS011;2603;48.918;8.980;2023-03-23T06:31:45;2.53;;;1.30;;
5167;SDS011;2603;48.918;8.980;2023-03-23T06:34:14;2.93;;;1.73;;
5167;SDS011;2603;48.918;8.980;2023-03-23T06:36:59;1.83;;;1.20;;
5167;SDS011;2603;48.918;8.980;2023-03-23T06:39:37;3.37;;;1.80;;
5167;SDS011;2603;48.918;8.980;2023-03-23T06:42:41;3.20;;;1.73;;
5167;SDS011;2603;48.918;8.980;2023-03-23T06:45:27;2.70;;;1.30;;
5167;SDS011;2603;48.918;8.980;2023-03-23T06:48:12;3.30;;;1.57;;
5167;SDS011;2603;48.918;8.980;2023-03-23T06:50:42;4.30;;;2.50;;
5167;SDS011;2603;48.918;8.980;2023-03-23T06:53:09;3.13;;;1.77;;
5167;SDS011;2603;48.918;8.980;2023-03-23T06:55:36;1.73;;;1.10;;
5167;SDS011;2603;48.918;8.980;2023-03-23T06:58:04;3.20;;;1.30;;
5167;SDS011;2603;48.918;8.980;2023-03-23T07:00:31;4.20;;;1.43;;
5167;SDS011;2603;48.918;8.980;2023-03-23T07:02:58;3.93;;;1.97;;
5167;SDS011;2603;48.918;8.980;2023-03-23T07:05:25;3.40;;;1.43;;
5167;SDS011;2603;48.918;8.980;2023-03-23T07:07:52;2.53;;;1.37;;
5167;SDS011;2603;48.918;8.980;2023-03-23T07:10:28;2.83;;;1.57;;
5167;SDS011;2603;48.918;8.980;2023-03-23T07:12:56;2.80;;;1.50;;
5167;SDS011;2603;48.918;8.980;2023-03-23T07:15:26;2.63;;;1.40;;
5167;SDS011;2603;48.918;8.980;2023-03-23T07:17:54;1.90;;;1.30;;
5167;SDS011;2603;48.918;8.980;2023-03-23T07:20:37;3.10;;;1.60;;
5167;SDS011;2603;48.918;8.980;2023-03-23T07:23:06;2.10;;;1.50;;
5167;SDS011;2603;48.918;8.980;2023-03-23T07:25:56;2.70;;;1.90;;
5167;SDS011;2603;48.918;8.980;2023-03-23T07:28:30;6.90;;;2.53;;
5167;SDS011;2603;48.918;8.980;2023-03-23T07:31:03;6.83;;;3.37;;
5167;SDS011;2603;48.918;8.980;2023-03-23T07:33:30;2.73;;;1.87;;
5167;SDS011;2603;48.918;8.980;2023-03-23T07:35:58;2.70;;;1.90;;
5167;SDS011;2603;48.918;8.980;2023-03-23T07:38:25;4.20;;;1.73;;
5167;SDS011;2603;48.918;8.980;2023-03-23T07:40:52;3.83;;;1.63;;
5167;SDS011;2603;48.918;8.980;2023-03-23T07:43:19;3.43;;;1.53;;
5167;SDS011;2603;48.918;8.980;2023-03-23T07:46:07;2.58;;;1.40;;
5167;SDS011;2603;48.918;8.980;2023-03-23T07:48:45;5.53;;;1.90;;
5167;SDS011;2603;48.918;8.980;2023-03-23T07:51:13;1.50;;;1.00;;
5167;SDS011;2603;48.918;8.980;2023-03-23T07:53:41;6.60;;;1.40;;
5167;SDS011;2603;48.918;8.980;2023-03-23T07:56:36;4.33;;;1.57;;
5167;SDS011;2603;48.918;8.980;2023-03-23T07:59:10;2.53;;;1.80;;
5167;SDS011;2603;48.918;8.980;2023-03-23T08:01:40;4.10;;;2.37;;
5167;SDS011;2603;48.918;8.980;2023-03-23T08:04:27;3.13;;;1.90;;
5167;SDS011;2603;48.918;8.980;2023-03-23T08:07:08;4.27;;;1.63;;
5167;SDS011;2603;48.918;8.980;2023-03-23T08:10:00;3.43;;;1.80;;
5167;SDS011;2603;48.918;8.980;2023-03-23T08:12:32;2.70;;;1.50;;
5167;SDS011;2603;48.918;8.980;2023-03-23T08:15:25;2.57;;;1.83;;
5167;SDS011;2603;48.918;8.980;2023-03-23T08:18:03;3.17;;;1.53;;
5167;SDS011;2603;48.918;8.980;2023-03-23T08:20:49;3.20;;;1.50;;
5167;SDS011;2603;48.918;8.980;2023-03-23T08:23:29;3.50;;;1.50;;
5167;SDS011;2603;48.918;8.980;2023-03-23T08:26:18;1.80;;;1.50;;
5167;SDS011;2603;48.918;8.980;2023-03-23T08:28:59;2.90;;;1.60;;
5167;SDS011;2603;48.918;8.980;2023-03-23T08:32:04;4.33;;;1.73;;
5167;SDS011;2603;48.918;8.980;2023-03-23T08:34:52;4.10;;;1.80;;
5167;SDS011;2603;48.918;8.980;2023-03-23T08:37:43;3.53;;;1.90;;
5167;SDS011;2603;48.918;8.980;2023-03-23T08:40:30;3.05;;;1.80;;
5167;SDS011;2603;48.918;8.980;2023-03-23T08:43:13;6.47;;;1.77;;
5167;SDS011;2603;48.918;8.980;2023-03-23T08:45:58;3.87;;;1.80;;
5167;SDS011;2603;48.918;8.980;2023-03-23T08:49:05;2.80;;;1.40;;
5167;SDS011;2603;48.918;8.980;2023-03-23T08:52:02;2.58;;;1.60;;
5167;SDS011;2603;48.918;8.980;2023-03-23T08:54:49;1.93;;;1.30;;
5167;SDS011;2603;48.918;8.980;2023-03-23T08:57:27;8.53;;;1.70;;
5167;SDS011;2603;48.918;8.980;2023-03-23T09:00:07;3.73;;;1.30;;
5167;SDS011;2603;48.918;8.980;2023-03-23T09:03:05;2.60;;;1.67;;
5167;SDS011;2603;48.918;8.980;2023-03-23T09:05:42;3.13;;;1.50;;
5167;SDS011;2603;48.918;8.980;2023-03-23T09:08:23;2.37;;;1.63;;
5167;SDS011;2603;48.918;8.980;2023-03-23T09:10:50;2.60;;;1.43;;
5167;SDS011;2603;48.918;8.980;2023-03-23T09:13:17;2.43;;;1.50;;
5167;SDS011;2603;48.918;8.980;2023-03-23T09:15:43;3.33;;;1.40;;
5167;SDS011;2603;48.918;8.980;2023-03-23T09:18:10;1.30;;;0.80;;
5167;SDS011;2603;48.918;8.980;2023-03-23T09:20:37;3.10;;;1.30;;
5167;SDS011;2603;48.918;8.980;2023-03-23T09:23:04;2.17;;;1.30;;
5167;SDS011;2603;48.918;8.980;2023-03-23T09:25:32;13.83;;;1.43;;
5167;SDS011;2603;48.918;8.980;2023-03-23T09:28:00;1.70;;;1.10;;
5167;SDS011;2603;48.918;8.980;2023-03-23T09:30:28;3.80;;;1.40;;
5167;SDS011;2603;48.918;8.980;2023-03-23T09:32:56;4.07;;;1.50;;
5167;SDS011;2603;48.918;8.980;2023-03-23T09:35:26;2.43;;;1.43;;
5167;SDS011;2603;48.918;8.980;2023-03-23T09:37:53;2.20;;;1.40;;
5167;SDS011;2603;48.918;8.980;2023-03-23T09:40:20;2.33;;;1.30;;
5167;SDS011;2603;48.918;8.980;2023-03-23T09:43:01;3.47;;;1.20;;
5167;SDS011;2603;48.918;8.980;2023-03-23T09:45:39;2.27;;;1.17;;
5167;SDS011;2603;48.918;8.980;2023-03-23T09:48:19;4.07;;;1.30;;
5167;SDS011;2603;48.918;8.980;2023-03-23T09:50:52;4.10;;;1.43;;
5167;SDS011;2603;48.918;8.980;2023-03-23T09:53:24;2.70;;;1.10;;
5167;SDS011;2603;48.918;8.980;2023-03-23T09:55:54;1.90;;;1.00;;
5167;SDS011;2603;48.918;8.980;2023-03-23T09:58:23;2.93;;;1.50;;
5167;SDS011;2603;48.918;8.980;2023-03-23T10:00:54;5.23;;;1.40;;
5167;SDS011;2603;48.918;8.980;2023-03-23T10:03:25;5.00;;;1.70;;
5167;SDS011;2603;48.918;8.980;2023-03-23T10:05:54;2.30;;;1.27;;
5167;SDS011;2603;48.918;8.980;2023-03-23T10:08:21;2.50;;;1.33;;
5167;SDS011;2603;48.918;8.980;2023-03-23T10:10:51;2.50;;;1.17;;
5167;SDS011;2603;48.918;8.980;2023-03-23T10:13:28;1.57;;;1.07;;
5167;SDS011;2603;48.918;8.980;2023-03-23T10:16:02;2.70;;;1.07;;
5167;SDS011;2603;48.918;8.980;2023-03-23T10:18:30;2.07;;;1.10;;
5167;SDS011;2603;48.918;8.980;2023-03-23T10:21:01;1.50;;;1.00;;
5167;SDS011;2603;48.918;8.980;2023-03-23T10:26:32;4.23;;;1.27;;
5167;SDS011;2603;48.918;8.980;2023-03-23T10:29:08;1.60;;;1.00;;
5167;SDS011;2603;48.918;8.980;2023-03-23T10:31:38;1.93;;;1.40;;
5167;SDS011;2603;48.918;8.980;2023-03-23T10:34:09;2.73;;;1.37;;
5167;SDS011;2603;48.918;8.980;2023-03-23T10:36:38;3.20;;;1.53;;
5167;SDS011;2603;48.918;8.980;2023-03-23T10:39:15;2.50;;;1.10;;
5167;SDS011;2603;48.918;8.980;2023-03-23T10:41:44;1.83;;;0.80;;
5167;SDS011;2603;48.918;8.980;2023-03-23T10:44:13;2.57;;;1.20;;
5167;SDS011;2603;48.918;8.980;2023-03-23T10:46:46;6.23;;;1.27;;
5167;SDS011;2603;48.918;8.980;2023-03-23T10:49:19;3.03;;;1.30;;
5167;SDS011;2603;48.918;8.980;2023-03-23T10:52:00;1.77;;;1.03;;
5167;SDS011;2603;48.918;8.980;2023-03-23T10:54:32;1.80;;;1.10;;
5167;SDS011;2603;48.918;8.980;2023-03-23T10:57:11;3.73;;;1.43;;
5167;SDS011;2603;48.918;8.980;2023-03-23T10:59:44;5.23;;;0.93;;
5167;SDS011;2603;48.918;8.980;2023-03-23T11:02:13;3.07;;;1.33;;
5167;SDS011;2603;48.918;8.980;2023-03-23T11:04:45;2.17;;;1.13;;
5167;SDS011;2603;48.918;8.980;2023-03-23T11:07:20;2.30;;;1.20;;
5167;SDS011;2603;48.918;8.980;2023-03-23T11:09:54;6.20;;;1.43;;
5167;SDS011;2603;48.918;8.980;2023-03-23T11:12:21;3.37;;;1.40;;
5167;SDS011;2603;48.918;8.980;2023-03-23T11:14:49;2.70;;;1.70;;
5167;SDS011;2603;48.918;8.980;2023-03-23T11:17:20;2.20;;;1.30;;
5167;SDS011;2603;48.918;8.980;2023-03-23T11:19:49;2.73;;;1.30;;
5167;SDS011;2603;48.918;8.980;2023-03-23T11:22:17;2.20;;;1.33;;
5167;SDS011;2603;48.918;8.980;2023-03-23T11:24:47;6.80;;;1.23;;
5167;SDS011;2603;48.918;8.980;2023-03-23T11:27:18;2.07;;;0.90;;
5167;SDS011;2603;48.918;8.980;2023-03-23T11:29:49;4.03;;;1.30;;
5167;SDS011;2603;48.918;8.980;2023-03-23T11:32:18;2.70;;;1.20;;
5167;SDS011;2603;48.918;8.980;2023-03-23T11:34:53;2.87;;;1.60;;
5167;SDS011;2603;48.918;8.980;2023-03-23T11:37:22;3.40;;;1.23;;
5167;SDS011;2603;48.918;8.980;2023-03-23T11:39:54;2.53;;;1.30;;
5167;SDS011;2603;48.918;8.980;2023-03-23T11:42:22;2.13;;;1.17;;
5167;SDS011;2603;48.918;8.980;2023-03-23T11:44:54;7.87;;;1.53;;
5167;SDS011;2603;48.918;8.980;2023-03-23T11:47:23;3.20;;;1.50;;
5167;SDS011;2603;48.918;8.980;2023-03-23T11:49:55;2.20;;;1.30;;
5167;SDS011;2603;48.918;8.980;2023-03-23T11:52:36;2.70;;;1.30;;
5167;SDS011;2603;48.918;8.980;2023-03-23T11:55:08;2.50;;;1.07;;
5167;SDS011;2603;48.918;8.980;2023-03-23T11:57:37;3.50;;;1.47;;
5167;SDS011;2603;48.918;8.980;2023-03-23T12:00:12;3.30;;;1.50;;
5167;SDS011;2603;48.918;8.980;2023-03-23T12:02:42;2.60;;;1.37;;
5167;SDS011;2603;48.918;8.980;2023-03-23T12:05:35;3.37;;;1.70;;
5167;SDS011;2603;48.918;8.980;2023-03-23T12:08:18;2.50;;;1.53;;
5167;SDS011;2603;48.918;8.980;2023-03-23T12:10:53;2.70;;;1.70;;
5167;SDS011;2603;48.918;8.980;2023-03-23T12:13:28;3.07;;;1.60;;
5167;SDS011;2603;48.918;8.980;2023-03-23T12:16:07;11.13;;;2.43;;
5167;SDS011;2603;48.918;8.980;2023-03-23T12:18:40;3.20;;;1.83;;
5167;SDS011;2603;48.918;8.980;2023-03-23T12:21:15;4.57;;;1.67;;
5167;SDS011;2603;48.918;8.980;2023-03-23T12:23:48;10.40;;;1.93;;
5167;SDS011;2603;48.918;8.980;2023-03-23T12:26:23;4.00;;;1.90;;
5167;SDS011;2603;48.918;8.980;2023-03-23T12:28:58;5.30;;;1.97;;
5167;SDS011;2603;48.918;8.980;2023-03-23T12:31:33;4.10;;;2.07;;
5167;SDS011;2603;48.918;8.980;2023-03-23T12:34:05;7.20;;;1.90;;
5167;SDS011;2603;48.918;8.980;2023-03-23T12:36:38;2.87;;;1.50;;
5167;SDS011;2603;48.918;8.980;2023-03-23T12:39:28;3.20;;;1.50;;
5167;SDS011;2603;48.918;8.980;2023-03-23T12:42:10;2.73;;;2.00;;
5167;SDS011;2603;48.918;8.980;2023-03-23T12:44:43;5.53;;;1.87;;
5167;SDS011;2603;48.918;8.980;2023-03-23T12:50:05;2.77;;;1.23;;
5167;SDS011;2603;48.918;8.980;2023-03-23T12:52:38;3.17;;;1.93;;
5167;SDS011;2603;48.918;8.980;2023-03-23T12:55:11;5.33;;;1.90;;
5167;SDS011;2603;48.918;8.980;2023-03-23T12:57:43;2.97;;;1.80;;
5167;SDS011;2603;48.918;8.980;2023-03-23T13:00:16;6.27;;;1.87;;
5167;SDS011;2603;48.918;8.980;2023-03-23T13:02:48;4.57;;;1.87;;
5167;SDS011;2603;48.918;8.980;2023-03-23T13:05:26;3.03;;;1.67;;
5167;SDS011;2603;48.918;8.980;2023-03-23T13:07:59;6.63;;;2.20;;
5167;SDS011;2603;48.918;8.980;2023-03-23T13:10:28;5.50;;;2.20;;
5167;SDS011;2603;48.918;8.980;2023-03-23T13:12:56;6.53;;;2.07;;
5167;SDS011;2603;48.918;8.980;2023-03-23T13:15:26;3.30;;;1.80;;
5167;SDS011;2603;48.918;8.980;2023-03-23T13:18:08;6.60;;;2.10;;
5167;SDS011;2603;48.918;8.980;2023-03-23T13:20:40;6.53;;;1.70;;
5167;SDS011;2603;48.918;8.980;2023-03-23T13:23:15;3.80;;;1.93;;
5167;SDS011;2603;48.918;8.980;2023-03-23T13:25:48;7.23;;;2.23;;
5167;SDS011;2603;48.918;8.980;2023-03-23T13:28:18;3.47;;;1.60;;
5167;SDS011;2603;48.918;8.980;2023-03-23T13:31:01;4.97;;;1.90;;
5167;SDS011;2603;48.918;8.980;2023-03-23T13:33:32;3.80;;;2.00;;
5167;SDS011;2603;48.918;8.980;2023-03-23T13:36:05;4.90;;;1.70;;
5167;SDS011;2603;48.918;8.980;2023-03-23T13:38:35;6.03;;;1.50;;
5167;SDS011;2603;48.918;8.980;2023-03-23T13:41:06;5.13;;;1.80;;
5167;SDS011;2603;48.918;8.980;2023-03-23T13:43:35;4.30;;;1.80;;
5167;SDS011;2603;48.918;8.980;2023-03-23T13:46:06;8.30;;;1.93;;
5167;SDS011;2603;48.918;8.980;2023-03-23T13:48:43;7.83;;;2.13;;
5167;SDS011;2603;48.918;8.980;2023-03-23T13:51:25;3.67;;;1.60;;
5167;SDS011;2603;48.918;8.980;2023-03-23T13:54:04;4.67;;;1.70;;
5167;SDS011;2603;48.918;8.980;2023-03-23T13:56:35;2.03;;;1.47;;
5167;SDS011;2603;48.918;8.980;2023-03-23T13:59:05;4.13;;;1.90;;
5167;SDS011;2603;48.918;8.980;2023-03-23T14:01:33;10.27;;;2.10;;
5167;SDS011;2603;48.918;8.980;2023-03-23T14:04:04;3.13;;;1.70;;
5167;SDS011;2603;48.918;8.980;2023-03-23T14:06:33;3.93;;;1.83;;
5167;SDS011;2603;48.918;8.980;2023-03-23T14:09:05;9.23;;;2.30;;
5167;SDS011;2603;48.918;8.980;2023-03-23T14:11:34;4.77;;;1.83;;
5167;SDS011;2603;48.918;8.980;2023-03-23T14:14:14;3.57;;;1.33;;
5167;SDS011;2603;48.918;8.980;2023-03-23T14:16:42;7.80;;;2.17;;
5167;SDS011;2603;48.918;8.980;2023-03-23T14:19:15;2.30;;;1.40;;
5167;SDS011;2603;48.918;8.980;2023-03-23T14:21:49;5.60;;;2.00;;
5167;SDS011;2603;48.918;8.980;2023-03-23T14:24:19;5.37;;;2.20;;
5167;SDS011;2603;48.918;8.980;2023-03-23T14:26:48;3.90;;;1.67;;
5167;SDS011;2603;48.918;8.980;2023-03-23T14:29:17;3.10;;;2.13;;
5167;SDS011;2603;48.918;8.980;2023-03-23T14:31:44;6.57;;;1.90;;
5167;SDS011;2603;48.918;8.980;2023-03-23T14:34:12;5.87;;;2.17;;
5167;SDS011;2603;48.918;8.980;2023-03-23T14:36:42;4.53;;;1.97;;
5167;SDS011;2603;48.918;8.980;2023-03-23T14:39:13;6.53;;;1.70;;
5167;SDS011;2603;48.918;8.980;2023-03-23T14:41:43;4.67;;;1.90;;
5167;SDS011;2603;48.918;8.980;2023-03-23T14:44:12;3.13;;;2.00;;
5167;SDS011;2603;48.918;8.980;2023-03-23T14:46:41;3.50;;;1.83;;
5167;SDS011;2603;48.918;8.980;2023-03-23T14:49:10;5.90;;;1.77;;
5167;SDS011;2603;48.918;8.980;2023-03-23T14:51:47;5.40;;;1.90;;
5167;SDS011;2603;48.918;8.980;2023-03-23T14:54:18;15.07;;;2.40;;
5167;SDS011;2603;48.918;8.980;2023-03-23T14:56:48;16.40;;;2.43;;
5167;SDS011;2603;48.918;8.980;2023-03-23T14:59:14;14.13;;;2.20;;
5167;SDS011;2603;48.918;8.980;2023-03-23T15:01:41;8.83;;;2.40;;
5167;SDS011;2603;48.918;8.980;2023-03-23T15:04:09;5.27;;;2.87;;
5167;SDS011;2603;48.918;8.980;2023-03-23T15:06:38;8.13;;;2.17;;
5167;SDS011;2603;48.918;8.980;2023-03-23T15:09:09;8.00;;;2.53;;
5167;SDS011;2603;48.918;8.980;2023-03-23T15:11:39;12.57;;;3.07;;
5167;SDS011;2603;48.918;8.980;2023-03-23T15:14:07;17.33;;;3.20;;
5167;SDS011;2603;48.918;8.980;2023-03-23T15:16:37;9.00;;;2.50;;
5167;SDS011;2603;48.918;8.980;2023-03-23T15:19:11;13.27;;;2.17;;
5167;SDS011;2603;48.918;8.980;2023-03-23T15:21:46;6.67;;;2.90;;
5167;SDS011;2603;48.918;8.980;2023-03-23T15:24:26;11.07;;;2.60;;
5167;SDS011;2603;48.918;8.980;2023-03-23T15:26:53;6.80;;;3.00;;
5167;SDS011;2603;48.918;8.980;2023-03-23T15:29:29;4.37;;;2.53;;
5167;SDS011;2603;48.918;8.980;2023-03-23T15:31:56;8.03;;;2.07;;
5167;SDS011;2603;48.918;8.980;2023-03-23T15:34:29;7.10;;;2.37;;
5167;SDS011;2603;48.918;8.980;2023-03-23T15:36:58;4.37;;;2.20;;
5167;SDS011;2603;48.918;8.980;2023-03-23T15:39:28;5.50;;;2.20;;
5167;SDS011;2603;48.918;8.980;2023-03-23T15:41:55;3.93;;;1.83;;
5167;SDS011;2603;48.918;8.980;2023-03-23T15:44:24;7.03;;;1.77;;
5167;SDS011;2603;48.918;8.980;2023-03-23T15:46:53;11.33;;;2.30;;
5167;SDS011;2603;48.918;8.980;2023-03-23T15:49:29;9.67;;;3.40;;
5167;SDS011;2603;48.918;8.980;2023-03-23T15:51:56;7.37;;;2.00;;
5167;SDS011;2603;48.918;8.980;2023-03-23T15:54:22;3.50;;;2.13;;
5167;SDS011;2603;48.918;8.980;2023-03-23T15:56:50;3.87;;;1.93;;
5167;SDS011;2603;48.918;8.980;2023-03-23T15:59:17;3.80;;;2.40;;